Time;durP1;ratioP1;P1;durP2;ratioP2;P2;SDS_P1;SDS_P2;PMS_P1;PMS_P2;Temp;Humidity;BMP_temperature;BMP_pressure;BME280_temperature;BME280_humidity;BME280_pressure;Samples;Min_cycle;Max_cycle;Signal;HPM_P1;HPM_P2
2022/12/17 13:08:22;;;;;;;28.42;11.40;;;-0.20;62.20;;;;;;2372943;53;21531;-71
2022/12/17 13:10:49;;;;;;;28.98;11.15;;;-0.20;62.00;;;;;;2369366;53;21057;-69
2022/12/17 13:13:39;;;;;;;29.25;11.20;;;-0.30;62.10;;;;;;2369359;53;20934;-72
2022/12/17 13:17:40;;;;;;;25.83;11.12;;;-0.40;62.00;;;;;;2622279;52;21416;-73
2022/12/17 13:20:29;;;;;;;27.80;10.60;;;-0.40;61.90;;;;;;2369447;53;20968;-73
2022/12/17 13:26:41;;;;;;;28.45;10.93;;;-0.50;61.90;;;;;;2622043;52;21345;-72
2022/12/17 13:29:34;;;;;;;24.25;9.85;;;-0.60;61.90;;;;;;2369998;53;21005;-70
2022/12/17 13:32:31;;;;;;;22.13;8.82;;;-0.60;62.50;;;;;;2369338;53;21383;-74
2022/12/17 13:35:27;;;;;;;22.60;9.45;;;-0.60;62.40;;;;;;2451390;52;20930;-73
2022/12/17 13:40:44;;;;;;;22.75;9.85;;;-0.60;62.50;;;;;;2377920;52;21436;-73
2022/12/17 13:43:18;;;;;;;27.13;10.82;;;-0.60;63.00;;;;;;2620669;52;21365;-73
2022/12/17 13:45:44;;;;;;;23.58;9.85;;;-0.70;62.50;;;;;;2368266;53;20922;-71
2022/12/17 13:48:23;;;;;;;29.25;10.20;;;-0.70;62.50;;;;;;2368769;53;21406;-73
2022/12/17 13:50:58;;;;;;;27.83;10.38;;;-0.70;62.40;;;;;;2369240;53;21542;-73
2022/12/17 13:53:25;;;;;;;25.02;9.38;;;-0.70;62.30;;;;;;2534258;52;21275;-72
2022/12/17 13:55:53;;;;;;;27.05;10.50;;;-0.80;62.10;;;;;;2369108;53;21036;-70
2022/12/17 13:58:22;;;;;;;19.45;8.57;;;-0.80;62.00;;;;;;2447831;52;21214;-73
2022/12/17 14:00:48;;;;;;;23.40;9.18;;;-0.80;62.10;;;;;;2369457;53;20936;-72
2022/12/17 14:03:22;;;;;;;49.08;17.58;;;-0.80;62.20;;;;;;2422360;53;20996;-73
2022/12/17 14:05:54;;;;;;;31.10;12.85;;;-0.90;62.20;;;;;;2588312;52;21736;-73
2022/12/17 14:08:21;;;;;;;32.08;12.75;;;-0.90;62.40;;;;;;2346542;53;21807;-73
2022/12/17 14:10:51;;;;;;;26.00;10.30;;;-0.90;62.50;;;;;;2601404;52;20926;-71
2022/12/17 14:13:17;;;;;;;25.73;10.23;;;-0.90;62.70;;;;;;2535616;52;21486;-70
2022/12/17 14:15:46;;;;;;;24.52;10.38;;;-0.90;62.80;;;;;;2369636;53;20926;-76
2022/12/17 14:18:16;;;;;;;26.80;11.00;;;-0.80;62.90;;;;;;2526374;52;20942;-69
2022/12/17 14:20:44;;;;;;;26.17;10.73;;;-0.90;62.90;;;;;;2370128;53;22261;-73
2022/12/17 14:23:13;;;;;;;22.80;8.88;;;-0.80;63.10;;;;;;2516970;52;20947;-73
2022/12/17 14:25:41;;;;;;;27.30;9.82;;;-0.80;63.10;;;;;;2362591;53;20845;-71
2022/12/17 14:28:23;;;;;;;28.50;10.65;;;-0.80;63.10;;;;;;2621953;52;20899;-71
2022/12/17 14:30:50;;;;;;;19.33;8.23;;;-0.80;62.80;;;;;;2342134;53;21016;-72
2022/12/17 14:33:43;;;;;;;25.85;9.35;;;-0.80;62.60;;;;;;2342190;53;20994;-71
2022/12/17 14:36:22;;;;;;;22.25;9.18;;;-0.80;63.20;;;;;;2348622;53;20948;-70
2022/12/17 14:38:53;;;;;;;29.00;10.68;;;-0.80;63.10;;;;;;2337957;53;21264;-72
2022/12/17 14:44:05;;;;;;;20.75;8.50;;;-0.90;62.60;;;;;;2347555;53;20974;-73
2022/12/17 14:46:32;;;;;;;19.67;8.45;;;-0.90;62.70;;;;;;2335402;53;20920;-72
2022/12/17 14:49:00;;;;;;;22.65;8.70;;;-0.90;62.70;;;;;;2341010;53;20933;-70
2022/12/17 14:51:40;;;;;;;25.98;10.55;;;-0.90;62.80;;;;;;2622374;52;21057;-70
2022/12/17 14:54:31;;;;;;;25.67;9.93;;;-0.90;62.80;;;;;;2621619;52;21784;-72
2022/12/17 14:56:58;;;;;;;31.65;12.13;;;-0.90;62.90;;;;;;2369435;53;21002;-74
2022/12/17 14:59:29;;;;;;;29.58;11.27;;;-0.90;62.90;;;;;;2372641;52;21886;-74
2022/12/17 15:01:58;;;;;;;31.25;11.77;;;-0.90;62.80;;;;;;2372141;53;21002;-72
2022/12/17 15:04:26;;;;;;;29.08;10.93;;;-0.90;62.80;;;;;;2594975;52;20895;-71
2022/12/17 15:06:54;;;;;;;25.90;10.07;;;-0.90;62.70;;;;;;2584660;52;20970;-72
2022/12/17 15:09:21;;;;;;;30.02;11.27;;;-0.90;62.60;;;;;;2519268;52;21029;-72
2022/12/17 15:11:48;;;;;;;36.90;13.48;;;-0.90;62.60;;;;;;2369440;53;20906;-71
2022/12/17 15:14:15;;;;;;;28.73;10.55;;;-0.90;62.50;;;;;;2474722;52;20925;-73
2022/12/17 15:16:42;;;;;;;27.02;9.85;;;-1.00;62.30;;;;;;2369541;53;21025;-71
2022/12/17 15:19:09;;;;;;;21.50;9.10;;;-1.00;62.20;;;;;;2621527;52;20926;-69
2022/12/17 15:21:35;;;;;;;23.10;9.43;;;-1.00;62.10;;;;;;2369981;53;20930;-75
2022/12/17 15:24:03;;;;;;;30.73;10.50;;;-1.00;62.00;;;;;;2448979;52;21746;-70
2022/12/17 15:26:29;;;;;;;26.80;10.98;;;-1.00;62.40;;;;;;2369487;53;20989;-71
2022/12/17 15:28:56;;;;;;;33.92;11.60;;;-1.10;62.10;;;;;;2379766;52;20915;-75
2022/12/17 15:31:22;;;;;;;38.95;13.90;;;-1.10;62.20;;;;;;2368813;53;20988;-71
2022/12/17 15:33:50;;;;;;;29.87;11.48;;;-1.10;62.30;;;;;;2621496;52;20949;-70
2022/12/17 15:36:17;;;;;;;27.27;10.18;;;-1.10;62.40;;;;;;2443591;52;21459;-71
2022/12/17 15:38:45;;;;;;;29.15;9.73;;;-1.10;62.50;;;;;;2621606;52;20926;-73
2022/12/17 15:43:55;;;;;;;31.80;11.57;;;-1.10;62.30;;;;;;2594459;52;20954;-74
2022/12/17 15:46:22;;;;;;;75.78;24.33;;;-1.20;62.10;;;;;;2395445;52;21696;-71
2022/12/17 15:48:48;;;;;;;32.60;12.25;;;-1.20;62.10;;;;;;2403370;52;21001;-72
2022/12/17 15:51:16;;;;;;;33.45;13.00;;;-1.20;62.10;;;;;;2527446;52;20902;-71
2022/12/17 15:53:46;;;;;;;36.25;14.13;;;-1.20;62.10;;;;;;2432662;52;21481;-69
2022/12/17 15:56:23;;;;;;;32.35;12.70;;;-1.20;62.20;;;;;;2368976;53;21005;-69
2022/12/17 15:58:50;;;;;;;46.47;16.02;;;-1.30;62.30;;;;;;2475688;52;20947;-72
2022/12/17 16:01:16;;;;;;;37.53;15.52;;;-1.30;62.30;;;;;;2525991;52;21459;-70
2022/12/17 16:03:43;;;;;;;24.27;9.95;;;-1.30;62.40;;;;;;2369306;53;20974;-73
2022/12/17 16:06:09;;;;;;;29.70;12.07;;;-1.30;62.40;;;;;;2367644;53;21261;-72
2022/12/17 16:08:38;;;;;;;24.15;9.80;;;-1.30;62.20;;;;;;2391323;52;20950;-73
2022/12/17 16:11:06;;;;;;;28.92;9.82;;;-1.30;62.10;;;;;;2488152;52;21128;-71
2022/12/17 16:13:33;;;;;;;28.00;9.55;;;-1.40;62.00;;;;;;2471417;52;20954;-72
2022/12/17 16:15:59;;;;;;;23.05;8.60;;;-1.40;61.90;;;;;;2368980;53;21364;-70
2022/12/17 16:18:29;;;;;;;29.17;10.50;;;-1.40;61.80;;;;;;2557756;52;20970;-72
2022/12/17 16:21:01;;;;;;;24.35;9.40;;;-1.40;62.50;;;;;;2369041;53;20951;-72
2022/12/17 16:23:27;;;;;;;26.42;10.80;;;-1.50;61.70;;;;;;2404775;52;20998;-69
2022/12/17 16:25:57;;;;;;;24.87;9.23;;;-1.50;61.70;;;;;;2621680;52;21182;-71
2022/12/17 16:28:25;;;;;;;25.42;9.55;;;-1.60;61.60;;;;;;2415179;52;20931;-72
2022/12/17 16:31:01;;;;;;;29.02;11.02;;;-1.60;61.60;;;;;;2369533;53;20914;-73
2022/12/17 16:33:35;;;;;;;24.02;9.95;;;-1.60;61.70;;;;;;2454670;52;21341;-72
2022/12/17 16:36:02;;;;;;;26.30;10.50;;;-1.60;61.70;;;;;;2369178;53;20933;-73
2022/12/17 16:38:29;;;;;;;28.48;11.75;;;-1.60;61.80;;;;;;2621847;52;20935;-71
2022/12/17 16:40:58;;;;;;;26.73;9.65;;;-1.70;61.70;;;;;;2419735;52;21018;-71
2022/12/17 16:43:26;;;;;;;25.62;10.13;;;-1.70;61.70;;;;;;2369282;53;21298;-69
2022/12/17 16:45:52;;;;;;;25.77;9.65;;;-1.70;61.70;;;;;;2369221;53;21399;-72
2022/12/17 16:48:22;;;;;;;26.85;9.75;;;-1.70;61.80;;;;;;2369435;53;21455;-69
2022/12/17 16:50:49;;;;;;;30.48;12.80;;;-1.70;61.90;;;;;;2464821;52;21318;-71
2022/12/17 16:53:15;;;;;;;30.95;12.25;;;-1.80;61.80;;;;;;2491548;52;21014;-68
2022/12/17 16:55:45;;;;;;;27.10;11.40;;;-1.80;61.90;;;;;;2369242;53;20954;-73
2022/12/17 16:58:12;;;;;;;28.95;10.82;;;-1.80;62.10;;;;;;2487696;52;20911;-70
2022/12/17 17:00:39;;;;;;;29.95;11.45;;;-1.80;62.10;;;;;;2369858;53;20918;-73
2022/12/17 17:03:05;;;;;;;34.30;11.93;;;-1.80;62.10;;;;;;2390459;52;20944;-70
2022/12/17 17:05:33;;;;;;;22.67;8.88;;;-1.80;62.20;;;;;;2501553;52;21029;-72
2022/12/17 17:08:00;;;;;;;24.60;9.13;;;-1.80;62.30;;;;;;2451956;52;21183;-74
2022/12/17 17:10:26;;;;;;;25.02;9.07;;;-1.80;62.30;;;;;;2368230;53;20969;-68
2022/12/17 17:12:53;;;;;;;20.02;7.95;;;-1.80;62.20;;;;;;2621388;52;20910;-69
2022/12/17 17:15:19;;;;;;;23.70;8.95;;;-1.70;62.30;;;;;;2621809;52;20950;-73
2022/12/17 17:17:46;;;;;;;22.23;8.48;;;-1.80;62.10;;;;;;2368956;53;20962;-72
2022/12/17 17:20:12;;;;;;;24.65;9.75;;;-1.80;62.10;;;;;;2369259;53;20930;-70
2022/12/17 17:22:39;;;;;;;26.77;9.70;;;-1.80;62.10;;;;;;2419182;52;20922;-70
2022/12/17 17:25:06;;;;;;;26.05;9.20;;;-1.80;62.00;;;;;;2368146;53;20930;-68
2022/12/17 17:27:33;;;;;;;27.42;10.35;;;-1.90;61.80;;;;;;2458050;52;20953;-70
2022/12/17 17:29:59;;;;;;;23.95;9.10;;;-1.90;61.80;;;;;;2420480;52;20930;-71
2022/12/17 17:32:28;;;;;;;25.10;8.82;;;-1.90;61.70;;;;;;2471131;52;20974;-69
2022/12/17 17:34:55;;;;;;;27.80;9.43;;;-1.90;61.60;;;;;;2368974;53;21177;-69
2022/12/17 17:37:21;;;;;;;27.92;10.02;;;-2.00;61.40;;;;;;2415331;52;21242;-71
2022/12/17 17:39:48;;;;;;;26.92;9.65;;;-2.00;61.40;;;;;;2369465;53;21420;-68
2022/12/17 17:42:14;;;;;;;25.92;9.10;;;-2.00;61.40;;;;;;2369383;53;21109;-68
2022/12/17 17:44:41;;;;;;;18.50;7.47;;;-2.10;61.20;;;;;;2375108;52;21502;-71
2022/12/17 17:47:07;;;;;;;22.23;8.70;;;-2.10;61.20;;;;;;2369077;53;21030;-69
2022/12/17 17:49:34;;;;;;;25.88;9.38;;;-2.10;61.20;;;;;;2369829;53;20946;-72
2022/12/17 17:52:01;;;;;;;26.08;8.80;;;-2.20;61.20;;;;;;2621299;52;20926;-71
2022/12/17 17:54:35;;;;;;;28.55;11.02;;;-2.20;61.40;;;;;;2369670;53;20942;-69
2022/12/17 17:57:02;;;;;;;23.85;9.27;;;-2.20;61.50;;;;;;2369384;53;20946;-72
2022/12/17 17:59:28;;;;;;;28.33;10.32;;;-2.20;61.50;;;;;;2621714;52;21439;-72
2022/12/17 18:01:58;;;;;;;30.27;10.80;;;-2.20;61.50;;;;;;2553334;52;20935;-71
2022/12/17 18:04:25;;;;;;;29.33;11.30;;;-2.20;61.50;;;;;;2368971;53;20983;-71
2022/12/17 18:06:51;;;;;;;25.08;10.13;;;-2.20;61.50;;;;;;2574577;52;21437;-69
2022/12/17 18:09:42;;;;;;;30.00;9.98;;;-2.30;61.40;;;;;;2369677;53;21010;-71
2022/12/17 18:14:53;;;;;;;28.40;9.73;;;-2.30;61.50;;;;;;2341779;53;21029;-71
2022/12/17 18:17:50;;;;;;;30.42;12.93;;;-2.40;61.50;;;;;;2342161;53;20992;-73
2022/12/17 18:20:53;;;;;;;35.42;12.25;;;-2.30;61.70;;;;;;2341360;53;20939;-71
2022/12/17 18:23:20;;;;;;;24.08;9.48;;;-2.30;61.80;;;;;;2341204;53;21573;-71
2022/12/17 18:25:46;;;;;;;29.85;10.82;;;-2.30;62.00;;;;;;2512215;52;20918;-70
2022/12/17 18:28:13;;;;;;;28.95;10.35;;;-2.40;62.10;;;;;;2381584;52;21338;-70
2022/12/17 18:30:39;;;;;;;39.67;14.07;;;-2.30;62.20;;;;;;2369883;53;21487;-70
2022/12/17 18:33:06;;;;;;;40.08;14.10;;;-2.30;62.30;;;;;;2621730;52;20990;-72
2022/12/17 18:35:32;;;;;;;37.65;16.05;;;-2.30;62.40;;;;;;2621522;52;21296;-73
2022/12/17 18:37:59;;;;;;;30.98;12.20;;;-2.30;62.40;;;;;;2406041;52;21013;-71
2022/12/17 18:40:25;;;;;;;33.05;12.57;;;-2.30;62.50;;;;;;2369287;53;20994;-71
2022/12/17 18:45:40;;;;;;;29.80;11.25;;;-2.20;62.80;;;;;;2369697;53;21018;-70
2022/12/17 18:48:07;;;;;;;32.65;13.38;;;-2.20;62.70;;;;;;2496521;52;20942;-70
2022/12/17 18:50:33;;;;;;;35.13;12.52;;;-2.20;62.70;;;;;;2369191;53;20938;-71
2022/12/17 18:53:00;;;;;;;30.67;10.98;;;-2.20;62.70;;;;;;2414645;52;20998;-71
2022/12/17 18:55:26;;;;;;;24.90;9.95;;;-2.10;62.80;;;;;;2369229;53;20997;-72
2022/12/17 18:57:53;;;;;;;27.67;10.10;;;-2.10;62.80;;;;;;2368683;53;21467;-69
2022/12/17 19:00:19;;;;;;;36.88;12.02;;;-2.10;62.90;;;;;;2425405;52;21340;-69
2022/12/17 19:02:46;;;;;;;33.17;12.43;;;-2.10;62.90;;;;;;2402089;52;20911;-69
2022/12/17 19:05:12;;;;;;;33.70;12.30;;;-2.10;62.90;;;;;;2368810;53;21010;-69
2022/12/17 19:07:39;;;;;;;33.17;11.40;;;-2.10;63.00;;;;;;2350142;53;20951;-71
2022/12/17 19:10:05;;;;;;;28.15;9.68;;;-2.00;63.10;;;;;;2437919;52;21352;-72
2022/12/17 19:12:32;;;;;;;32.67;11.10;;;-2.00;63.00;;;;;;2375327;52;20927;-70
2022/12/17 19:14:58;;;;;;;25.00;10.32;;;-2.00;62.90;;;;;;2369616;53;21230;-71
2022/12/17 19:17:25;;;;;;;28.30;11.20;;;-2.00;62.90;;;;;;2363280;53;21313;-70
2022/12/17 19:19:51;;;;;;;27.45;11.43;;;-2.00;63.00;;;;;;2362514;53;20922;-73
2022/12/17 19:22:17;;;;;;;28.33;11.40;;;-2.00;63.10;;;;;;2362523;53;21029;-72
2022/12/17 19:24:44;;;;;;;31.67;11.73;;;-1.90;63.10;;;;;;2362906;53;20942;-70
2022/12/17 19:27:10;;;;;;;32.70;12.45;;;-1.90;63.10;;;;;;2361732;53;21002;-69
2022/12/17 19:29:37;;;;;;;28.38;11.27;;;-1.90;63.20;;;;;;2362829;53;20989;-70
2022/12/17 19:32:03;;;;;;;28.27;12.15;;;-1.90;63.20;;;;;;2364789;52;20997;-73
2022/12/17 19:34:31;;;;;;;28.23;11.48;;;-1.90;63.10;;;;;;2362261;53;21455;-72
2022/12/17 19:36:58;;;;;;;32.97;12.65;;;-1.80;63.30;;;;;;2362170;53;20978;-72
2022/12/17 19:39:24;;;;;;;33.30;12.48;;;-1.80;63.20;;;;;;2331305;54;21248;-69
2022/12/17 19:42:33;;;;;;;36.00;13.70;;;-1.80;63.20;;;;;;2335671;53;20917;-69
2022/12/17 19:45:03;;;;;;;27.03;12.90;;;-1.80;63.10;;;;;;2371791;53;20928;-71
2022/12/17 19:47:30;;;;;;;26.73;11.27;;;-1.80;63.10;;;;;;2331509;53;21384;-70
2022/12/17 19:49:56;;;;;;;33.33;12.75;;;-1.80;63.00;;;;;;2332488;53;21445;-70
2022/12/17 19:52:22;;;;;;;31.17;12.30;;;-1.70;63.10;;;;;;2343678;52;21431;-71
2022/12/17 19:55:01;;;;;;;26.48;11.55;;;-1.70;63.10;;;;;;2420236;52;21476;-70
2022/12/17 19:57:28;;;;;;;25.75;11.70;;;-1.70;63.00;;;;;;2340977;54;21082;-69
2022/12/17 19:59:54;;;;;;;28.08;11.00;;;-1.70;62.90;;;;;;2583311;52;21287;-72
2022/12/17 20:02:20;;;;;;;30.77;11.57;;;-1.70;62.90;;;;;;2379951;52;20974;-73
2022/12/17 20:04:47;;;;;;;25.67;11.00;;;-1.70;62.90;;;;;;2612007;52;21412;-73
2022/12/17 20:07:13;;;;;;;33.10;12.27;;;-1.70;62.90;;;;;;2359922;53;21057;-67
2022/12/17 20:09:39;;;;;;;31.60;11.77;;;-1.60;63.10;;;;;;2385282;52;21300;-68
2022/12/17 20:12:06;;;;;;;33.88;12.43;;;-1.60;63.10;;;;;;2366812;52;21005;-71
2022/12/17 20:14:34;;;;;;;29.80;12.23;;;-1.70;63.10;;;;;;2459432;52;21482;-70
2022/12/17 20:17:00;;;;;;;32.25;11.45;;;-1.60;63.20;;;;;;2360479;53;20942;-69
2022/12/17 20:19:30;;;;;;;38.05;13.43;;;-1.60;63.20;;;;;;2502411;52;20930;-71
2022/12/17 20:21:57;;;;;;;27.30;11.45;;;-1.60;63.20;;;;;;2363133;52;21918;-71
2022/12/17 20:24:23;;;;;;;31.35;11.57;;;-1.60;63.90;;;;;;2359958;53;21218;-68
2022/12/17 20:26:55;;;;;;;31.35;12.32;;;-1.60;63.10;;;;;;2360427;53;20954;-72
2022/12/17 20:29:22;;;;;;;31.23;11.93;;;-1.60;63.00;;;;;;2452853;52;20926;-69
2022/12/17 20:32:00;;;;;;;27.48;11.05;;;-1.60;63.00;;;;;;2503376;52;20930;-69
2022/12/17 20:34:27;;;;;;;31.52;11.12;;;-1.50;63.00;;;;;;2611578;52;20970;-70
2022/12/17 20:36:53;;;;;;;29.23;11.70;;;-1.60;62.90;;;;;;2360416;53;21298;-69
2022/12/17 20:39:20;;;;;;;27.90;11.70;;;-1.50;63.00;;;;;;2592009;52;21392;-69
2022/12/17 20:41:52;;;;;;;25.62;10.32;;;-1.50;63.00;;;;;;2360231;53;21868;-68
2022/12/17 20:44:18;;;;;;;34.20;12.40;;;-1.60;62.90;;;;;;2359469;53;20915;-69
2022/12/17 20:46:45;;;;;;;31.62;11.68;;;-1.60;62.90;;;;;;2359487;53;20946;-72
2022/12/17 20:49:12;;;;;;;32.40;12.05;;;-1.50;63.10;;;;;;2359791;53;20958;-68
2022/12/17 20:51:38;;;;;;;33.22;12.55;;;-1.50;63.10;;;;;;2360354;53;21524;-72
2022/12/17 20:54:04;;;;;;;32.10;10.82;;;-1.50;63.10;;;;;;2523826;52;21494;-69
2022/12/17 20:56:31;;;;;;;32.22;12.32;;;-1.50;63.10;;;;;;2360192;53;21561;-70
2022/12/17 20:58:59;;;;;;;33.30;12.20;;;-1.50;63.00;;;;;;2468634;52;20934;-72
2022/12/17 21:01:26;;;;;;;33.65;12.50;;;-1.50;63.00;;;;;;2357172;52;20929;-70
2022/12/17 21:03:53;;;;;;;38.65;11.55;;;-1.50;62.90;;;;;;2429675;52;21036;-67
2022/12/17 21:06:21;;;;;;;32.30;12.13;;;-1.50;62.90;;;;;;2577537;52;21334;-72
2022/12/17 21:08:48;;;;;;;36.08;11.70;;;-1.50;62.90;;;;;;2333274;53;21556;-70
2022/12/17 21:11:16;;;;;;;31.87;11.70;;;-1.50;62.90;;;;;;2337019;53;21458;-71
2022/12/17 21:13:42;;;;;;;39.05;12.70;;;-1.50;62.90;;;;;;2332767;53;21867;-69
2022/12/17 21:16:16;;;;;;;31.08;11.55;;;-1.50;62.90;;;;;;2332188;53;21949;-68
2022/12/17 21:18:42;;;;;;;36.80;12.25;;;-1.50;63.00;;;;;;2333006;53;20957;-70
2022/12/17 21:21:15;;;;;;;28.02;11.45;;;-1.50;63.10;;;;;;2331767;53;21636;-71
2022/12/17 21:23:41;;;;;;;40.03;16.98;;;-1.50;63.10;;;;;;2332556;53;20977;-72
2022/12/17 21:26:13;;;;;;;31.42;12.32;;;-1.50;63.00;;;;;;2332235;53;21459;-68
2022/12/17 21:28:40;;;;;;;27.08;10.25;;;-1.50;63.00;;;;;;2350806;53;20942;-71
2022/12/17 21:31:23;;;;;;;23.80;9.57;;;-1.50;62.90;;;;;;2360240;53;21456;-70
2022/12/17 21:33:50;;;;;;;23.02;8.68;;;-1.50;62.80;;;;;;2361050;53;20950;-73
2022/12/17 21:36:18;;;;;;;23.52;8.45;;;-1.50;62.60;;;;;;2359901;53;20930;-72
2022/12/17 21:38:45;;;;;;;20.08;7.75;;;-1.50;62.50;;;;;;2361262;53;20950;-70
2022/12/17 21:41:23;;;;;;;26.60;8.30;;;-1.60;62.30;;;;;;2521503;52;20911;-73
2022/12/17 21:43:58;;;;;;;25.92;9.50;;;-1.60;62.20;;;;;;2526778;52;20958;-70
2022/12/17 21:46:26;;;;;;;24.00;8.57;;;-1.60;62.20;;;;;;2359617;53;22056;-69
2022/12/17 21:48:52;;;;;;;30.55;10.23;;;-1.60;62.20;;;;;;2486740;52;20959;-70
2022/12/17 21:51:22;;;;;;;27.55;10.27;;;-1.70;62.10;;;;;;2361210;53;20972;-67
2022/12/17 21:53:53;;;;;;;26.52;9.57;;;-1.70;62.20;;;;;;2450689;52;20990;-73
2022/12/17 21:56:20;;;;;;;24.80;9.85;;;-1.70;62.20;;;;;;2364777;52;21545;-70
2022/12/17 21:58:46;;;;;;;24.00;8.82;;;-1.70;62.30;;;;;;2428227;52;20939;-68
2022/12/17 22:01:17;;;;;;;28.12;9.95;;;-1.70;62.30;;;;;;2360880;54;21013;-70
2022/12/17 22:03:43;;;;;;;30.50;10.50;;;-1.70;62.30;;;;;;2360718;53;20922;-70
2022/12/17 22:06:12;;;;;;;23.52;9.68;;;-1.70;62.40;;;;;;2359383;53;21525;-71
2022/12/17 22:08:39;;;;;;;30.88;10.98;;;-1.70;62.50;;;;;;2360979;53;20958;-67
2022/12/17 22:11:14;;;;;;;22.75;9.05;;;-1.70;62.50;;;;;;2360763;53;20922;-71
2022/12/17 22:16:34;;;;;;;24.52;9.02;;;-1.70;62.40;;;;;;2348221;53;21970;-73
2022/12/17 22:19:01;;;;;;;30.98;10.93;;;-1.70;62.50;;;;;;2605459;52;21657;-69
2022/12/17 22:21:30;;;;;;;32.08;11.02;;;-1.70;62.50;;;;;;2359968;53;21018;-70
2022/12/17 22:23:57;;;;;;;27.70;10.32;;;-1.70;62.60;;;;;;2360658;53;20971;-73
2022/12/17 22:26:23;;;;;;;22.87;8.93;;;-1.70;62.60;;;;;;2340960;53;21265;-73
2022/12/17 22:28:49;;;;;;;23.25;9.20;;;-1.70;62.60;;;;;;2360537;53;21357;-72
2022/12/17 22:34:02;;;;;;;24.63;9.75;;;-1.70;62.50;;;;;;2360830;53;20982;-71
2022/12/17 22:36:30;;;;;;;29.15;10.88;;;-1.70;62.50;;;;;;2494637;52;21873;-69
2022/12/17 22:38:59;;;;;;;30.25;11.20;;;-1.70;62.50;;;;;;2360834;53;21835;-69
2022/12/17 22:44:11;;;;;;;21.27;8.60;;;-1.70;62.60;;;;;;2351500;53;20907;-69
2022/12/17 22:46:37;;;;;;;27.13;9.00;;;-1.70;62.70;;;;;;2361072;53;20970;-72
2022/12/17 22:49:04;;;;;;;28.15;9.82;;;-1.70;62.70;;;;;;2366164;53;20937;-73
2022/12/17 22:51:30;;;;;;;28.60;10.25;;;-1.70;62.60;;;;;;2369508;53;21077;-68
2022/12/17 22:53:59;;;;;;;27.70;10.07;;;-1.70;62.60;;;;;;2585690;52;20950;-70
2022/12/17 22:56:26;;;;;;;24.37;10.38;;;-1.70;62.60;;;;;;2477387;52;21026;-69
2022/12/17 22:58:52;;;;;;;25.62;9.45;;;-1.70;62.60;;;;;;2362366;53;20969;-71
2022/12/17 23:01:19;;;;;;;22.60;8.88;;;-1.70;62.60;;;;;;2370163;53;20958;-70
2022/12/17 23:03:49;;;;;;;25.20;10.00;;;-1.70;62.50;;;;;;2370512;53;20906;-69
2022/12/17 23:06:16;;;;;;;29.10;10.02;;;-1.70;62.50;;;;;;2370176;53;20902;-70
2022/12/17 23:08:42;;;;;;;25.95;10.15;;;-1.70;62.50;;;;;;2369902;53;21535;-71
2022/12/17 23:11:13;;;;;;;21.48;9.13;;;-1.70;62.50;;;;;;2369951;53;20918;-69
2022/12/17 23:13:39;;;;;;;28.98;10.68;;;-1.70;62.50;;;;;;2385607;52;20974;-69
2022/12/17 23:16:10;;;;;;;21.08;8.18;;;-1.70;62.50;;;;;;2370127;53;20922;-72
2022/12/17 23:18:36;;;;;;;27.05;10.68;;;-1.70;62.50;;;;;;2370512;53;20926;-71
2022/12/17 23:21:14;;;;;;;24.33;9.57;;;-1.70;62.60;;;;;;2369308;53;21509;-73
2022/12/17 23:23:40;;;;;;;27.80;10.00;;;-1.70;62.60;;;;;;2370054;53;21375;-69
2022/12/17 23:26:12;;;;;;;24.58;9.63;;;-1.70;62.60;;;;;;2367481;53;20951;-70
2022/12/17 23:28:39;;;;;;;25.65;10.38;;;-1.70;62.60;;;;;;2353641;53;20934;-73
2022/12/17 23:31:10;;;;;;;25.42;9.70;;;-1.70;62.60;;;;;;2524127;52;20922;-71
2022/12/17 23:33:37;;;;;;;28.00;9.93;;;-1.70;62.60;;;;;;2617726;52;20938;-69
2022/12/17 23:36:07;;;;;;;23.30;9.27;;;-1.70;62.60;;;;;;2568987;52;20898;-69
2022/12/17 23:38:35;;;;;;;24.63;8.68;;;-1.70;62.60;;;;;;2370100;53;20966;-71
2022/12/17 23:41:24;;;;;;;24.08;9.63;;;-1.70;62.60;;;;;;2389124;52;21077;-72
2022/12/17 23:43:50;;;;;;;24.80;9.98;;;-1.70;62.60;;;;;;2370259;53;20923;-69
2022/12/17 23:46:17;;;;;;;22.33;9.27;;;-1.70;62.60;;;;;;2369867;53;20938;-70
2022/12/17 23:48:44;;;;;;;26.77;10.02;;;-1.70;62.60;;;;;;2370118;53;21014;-69
2022/12/17 23:51:12;;;;;;;21.25;8.40;;;-1.70;62.60;;;;;;2369560;53;20918;-69
2022/12/17 23:53:39;;;;;;;23.75;9.05;;;-1.70;62.60;;;;;;2622179;52;20917;-72
2022/12/17 23:56:25;;;;;;;22.50;8.60;;;-1.70;62.60;;;;;;2370294;53;20971;-70
2022/12/17 23:58:54;;;;;;;19.62;7.87;;;-1.70;62.60;;;;;;2370207;53;21010;-71
